sensor_id;sensor_type;location;lat;lon;timestamp;P1;durP1;ratioP1;P2;durP2;ratioP2
9948;SDS011;5013;51.840;8.276;2022-11-20T00:00:52;25.33;;;19.87;;
9948;SDS011;5013;51.840;8.276;2022-11-20T00:03:17;30.77;;;20.37;;
9948;SDS011;5013;51.840;8.276;2022-11-20T00:05:43;30.03;;;19.30;;
9948;SDS011;5013;51.840;8.276;2022-11-20T00:08:09;24.90;;;19.20;;
9948;SDS011;5013;51.840;8.276;2022-11-20T00:10:36;25.27;;;19.23;;
9948;SDS011;5013;51.840;8.276;2022-11-20T00:13:02;31.63;;;20.03;;
9948;SDS011;5013;51.840;8.276;2022-11-20T00:15:28;37.00;;;22.20;;
9948;SDS011;5013;51.840;8.276;2022-11-20T00:17:53;29.43;;;19.87;;
9948;SDS011;5013;51.840;8.276;2022-11-20T00:20:19;29.63;;;20.27;;
9948;SDS011;5013;51.840;8.276;2022-11-20T00:22:44;39.87;;;24.83;;
9948;SDS011;5013;51.840;8.276;2022-11-20T00:25:10;30.30;;;20.60;;
9948;SDS011;5013;51.840;8.276;2022-11-20T00:27:36;33.73;;;21.80;;
9948;SDS011;5013;51.840;8.276;2022-11-20T00:30:02;30.90;;;21.43;;
9948;SDS011;5013;51.840;8.276;2022-11-20T00:32:29;35.10;;;23.47;;
9948;SDS011;5013;51.840;8.276;2022-11-20T00:34:55;32.23;;;21.30;;
9948;SDS011;5013;51.840;8.276;2022-11-20T00:37:20;35.33;;;24.03;;
9948;SDS011;5013;51.840;8.276;2022-11-20T00:39:46;33.63;;;22.20;;
9948;SDS011;5013;51.840;8.276;2022-11-20T00:42:12;42.70;;;26.53;;
9948;SDS011;5013;51.840;8.276;2022-11-20T00:44:37;38.40;;;23.53;;
9948;SDS011;5013;51.840;8.276;2022-11-20T00:47:03;37.70;;;22.37;;
9948;SDS011;5013;51.840;8.276;2022-11-20T00:49:28;32.23;;;22.57;;
9948;SDS011;5013;51.840;8.276;2022-11-20T00:51:54;33.60;;;22.70;;
9948;SDS011;5013;51.840;8.276;2022-11-20T00:54:20;34.20;;;22.03;;
9948;SDS011;5013;51.840;8.276;2022-11-20T00:56:46;32.27;;;22.40;;
9948;SDS011;5013;51.840;8.276;2022-11-20T00:59:11;47.23;;;27.37;;
9948;SDS011;5013;51.840;8.276;2022-11-20T01:01:37;36.43;;;22.83;;
9948;SDS011;5013;51.840;8.276;2022-11-20T01:04:03;42.20;;;25.30;;
9948;SDS011;5013;51.840;8.276;2022-11-20T01:06:30;41.63;;;24.53;;
9948;SDS011;5013;51.840;8.276;2022-11-20T01:09:02;42.07;;;24.07;;
9948;SDS011;5013;51.840;8.276;2022-11-20T01:11:31;38.37;;;24.53;;
9948;SDS011;5013;51.840;8.276;2022-11-20T01:13:59;34.17;;;22.20;;
9948;SDS011;5013;51.840;8.276;2022-11-20T01:16:27;36.37;;;23.57;;
9948;SDS011;5013;51.840;8.276;2022-11-20T01:18:58;44.30;;;28.33;;
9948;SDS011;5013;51.840;8.276;2022-11-20T01:21:26;33.63;;;21.07;;
9948;SDS011;5013;51.840;8.276;2022-11-20T01:23:57;29.70;;;20.73;;
9948;SDS011;5013;51.840;8.276;2022-11-20T01:26:27;26.33;;;19.57;;
9948;SDS011;5013;51.840;8.276;2022-11-20T01:28:55;29.60;;;20.50;;
9948;SDS011;5013;51.840;8.276;2022-11-20T01:31:22;26.13;;;19.50;;
9948;SDS011;5013;51.840;8.276;2022-11-20T01:33:51;25.30;;;19.50;;
9948;SDS011;5013;51.840;8.276;2022-11-20T01:36:20;29.00;;;17.90;;
9948;SDS011;5013;51.840;8.276;2022-11-20T01:38:47;23.77;;;18.20;;
9948;SDS011;5013;51.840;8.276;2022-11-20T01:41:16;33.23;;;21.23;;
9948;SDS011;5013;51.840;8.276;2022-11-20T01:44:00;28.80;;;20.53;;
9948;SDS011;5013;51.840;8.276;2022-11-20T01:46:26;28.37;;;20.03;;
9948;SDS011;5013;51.840;8.276;2022-11-20T01:51:49;27.93;;;20.03;;
9948;SDS011;5013;51.840;8.276;2022-11-20T01:54:19;25.13;;;19.30;;
9948;SDS011;5013;51.840;8.276;2022-11-20T01:56:50;29.60;;;21.23;;
9948;SDS011;5013;51.840;8.276;2022-11-20T01:59:19;28.43;;;19.27;;
9948;SDS011;5013;51.840;8.276;2022-11-20T02:01:47;26.30;;;18.00;;
9948;SDS011;5013;51.840;8.276;2022-11-20T02:04:12;25.40;;;18.97;;
9948;SDS011;5013;51.840;8.276;2022-11-20T02:06:47;27.53;;;19.97;;
9948;SDS011;5013;51.840;8.276;2022-11-20T02:09:16;29.17;;;19.63;;
9948;SDS011;5013;51.840;8.276;2022-11-20T02:11:42;26.83;;;19.83;;
9948;SDS011;5013;51.840;8.276;2022-11-20T02:14:08;35.20;;;22.63;;
9948;SDS011;5013;51.840;8.276;2022-11-20T02:16:35;30.73;;;22.07;;
9948;SDS011;5013;51.840;8.276;2022-11-20T02:19:05;34.90;;;21.87;;
9948;SDS011;5013;51.840;8.276;2022-11-20T02:24:18;32.33;;;19.63;;
9948;SDS011;5013;51.840;8.276;2022-11-20T02:29:32;33.73;;;20.77;;
9948;SDS011;5013;51.840;8.276;2022-11-20T02:34:55;32.13;;;19.97;;
9948;SDS011;5013;51.840;8.276;2022-11-20T02:37:21;28.97;;;20.43;;
9948;SDS011;5013;51.840;8.276;2022-11-20T02:39:49;30.20;;;20.23;;
9948;SDS011;5013;51.840;8.276;2022-11-20T02:42:16;28.77;;;21.63;;
9948;SDS011;5013;51.840;8.276;2022-11-20T02:44:42;32.13;;;21.43;;
9948;SDS011;5013;51.840;8.276;2022-11-20T02:47:07;24.87;;;19.10;;
9948;SDS011;5013;51.840;8.276;2022-11-20T02:49:33;24.87;;;19.07;;
9948;SDS011;5013;51.840;8.276;2022-11-20T02:51:59;30.23;;;19.80;;
9948;SDS011;5013;51.840;8.276;2022-11-20T02:54:24;27.83;;;19.60;;
9948;SDS011;5013;51.840;8.276;2022-11-20T02:56:50;26.53;;;19.80;;
9948;SDS011;5013;51.840;8.276;2022-11-20T02:59:16;28.67;;;19.37;;
9948;SDS011;5013;51.840;8.276;2022-11-20T03:01:42;28.63;;;19.67;;
9948;SDS011;5013;51.840;8.276;2022-11-20T03:04:07;30.93;;;19.70;;
9948;SDS011;5013;51.840;8.276;2022-11-20T03:06:34;24.80;;;18.90;;
9948;SDS011;5013;51.840;8.276;2022-11-20T03:08:59;22.87;;;17.63;;
9948;SDS011;5013;51.840;8.276;2022-11-20T03:11:25;25.80;;;18.03;;
9948;SDS011;5013;51.840;8.276;2022-11-20T03:13:51;30.33;;;18.90;;
9948;SDS011;5013;51.840;8.276;2022-11-20T03:16:17;22.53;;;19.00;;
9948;SDS011;5013;51.840;8.276;2022-11-20T03:18:45;27.93;;;18.90;;
9948;SDS011;5013;51.840;8.276;2022-11-20T03:21:12;23.13;;;17.63;;
9948;SDS011;5013;51.840;8.276;2022-11-20T03:23:39;26.60;;;18.07;;
9948;SDS011;5013;51.840;8.276;2022-11-20T03:26:12;25.70;;;18.10;;
9948;SDS011;5013;51.840;8.276;2022-11-20T03:28:47;25.07;;;19.00;;
9948;SDS011;5013;51.840;8.276;2022-11-20T03:31:15;23.80;;;17.93;;
9948;SDS011;5013;51.840;8.276;2022-11-20T03:33:42;26.90;;;19.17;;
9948;SDS011;5013;51.840;8.276;2022-11-20T03:36:09;27.30;;;18.70;;
9948;SDS011;5013;51.840;8.276;2022-11-20T03:38:37;27.90;;;18.23;;
9948;SDS011;5013;51.840;8.276;2022-11-20T03:41:04;23.20;;;18.13;;
9948;SDS011;5013;51.840;8.276;2022-11-20T03:43:32;26.00;;;17.50;;
9948;SDS011;5013;51.840;8.276;2022-11-20T03:45:57;23.43;;;17.40;;
9948;SDS011;5013;51.840;8.276;2022-11-20T03:48:23;24.40;;;17.80;;
9948;SDS011;5013;51.840;8.276;2022-11-20T03:50:49;24.83;;;17.50;;
9948;SDS011;5013;51.840;8.276;2022-11-20T03:53:16;26.47;;;17.57;;
9948;SDS011;5013;51.840;8.276;2022-11-20T03:55:42;23.00;;;17.60;;
9948;SDS011;5013;51.840;8.276;2022-11-20T03:58:08;20.13;;;16.40;;
9948;SDS011;5013;51.840;8.276;2022-11-20T04:00:34;23.17;;;17.70;;
9948;SDS011;5013;51.840;8.276;2022-11-20T04:03:00;29.03;;;18.67;;
9948;SDS011;5013;51.840;8.276;2022-11-20T04:05:27;26.43;;;19.70;;
9948;SDS011;5013;51.840;8.276;2022-11-20T04:07:52;26.43;;;18.80;;
9948;SDS011;5013;51.840;8.276;2022-11-20T04:10:18;27.73;;;19.33;;
9948;SDS011;5013;51.840;8.276;2022-11-20T04:12:44;28.60;;;20.93;;
9948;SDS011;5013;51.840;8.276;2022-11-20T04:15:10;27.80;;;20.03;;
9948;SDS011;5013;51.840;8.276;2022-11-20T04:17:36;23.60;;;18.43;;
9948;SDS011;5013;51.840;8.276;2022-11-20T04:20:02;28.63;;;19.97;;
9948;SDS011;5013;51.840;8.276;2022-11-20T04:22:28;25.63;;;18.63;;
9948;SDS011;5013;51.840;8.276;2022-11-20T04:24:53;29.23;;;19.67;;
9948;SDS011;5013;51.840;8.276;2022-11-20T04:27:19;26.93;;;19.23;;
9948;SDS011;5013;51.840;8.276;2022-11-20T04:29:44;28.47;;;20.20;;
9948;SDS011;5013;51.840;8.276;2022-11-20T04:32:10;28.10;;;19.90;;
9948;SDS011;5013;51.840;8.276;2022-11-20T04:34:36;28.70;;;18.93;;
9948;SDS011;5013;51.840;8.276;2022-11-20T04:37:01;24.83;;;19.30;;
9948;SDS011;5013;51.840;8.276;2022-11-20T04:39:27;33.23;;;20.27;;
9948;SDS011;5013;51.840;8.276;2022-11-20T04:41:52;26.57;;;19.67;;
9948;SDS011;5013;51.840;8.276;2022-11-20T04:44:38;28.93;;;20.13;;
9948;SDS011;5013;51.840;8.276;2022-11-20T04:47:03;33.10;;;22.33;;
9948;SDS011;5013;51.840;8.276;2022-11-20T04:49:29;24.77;;;18.77;;
9948;SDS011;5013;51.840;8.276;2022-11-20T04:51:56;27.13;;;19.53;;
9948;SDS011;5013;51.840;8.276;2022-11-20T04:54:22;26.27;;;19.03;;
9948;SDS011;5013;51.840;8.276;2022-11-20T04:56:48;27.80;;;20.37;;
9948;SDS011;5013;51.840;8.276;2022-11-20T04:59:14;25.97;;;20.00;;
9948;SDS011;5013;51.840;8.276;2022-11-20T05:01:39;30.40;;;20.03;;
9948;SDS011;5013;51.840;8.276;2022-11-20T05:04:05;24.67;;;19.17;;
9948;SDS011;5013;51.840;8.276;2022-11-20T05:06:31;30.33;;;19.00;;
9948;SDS011;5013;51.840;8.276;2022-11-20T05:08:57;28.83;;;20.03;;
9948;SDS011;5013;51.840;8.276;2022-11-20T05:11:23;27.60;;;19.27;;
9948;SDS011;5013;51.840;8.276;2022-11-20T05:13:49;28.43;;;19.13;;
9948;SDS011;5013;51.840;8.276;2022-11-20T05:16:17;26.10;;;19.23;;
9948;SDS011;5013;51.840;8.276;2022-11-20T05:18:44;26.80;;;18.73;;
9948;SDS011;5013;51.840;8.276;2022-11-20T05:21:11;24.30;;;17.53;;
9948;SDS011;5013;51.840;8.276;2022-11-20T05:23:37;24.47;;;18.90;;
9948;SDS011;5013;51.840;8.276;2022-11-20T05:26:03;27.23;;;18.57;;
9948;SDS011;5013;51.840;8.276;2022-11-20T05:28:30;25.03;;;18.70;;
9948;SDS011;5013;51.840;8.276;2022-11-20T05:31:03;25.03;;;17.93;;
9948;SDS011;5013;51.840;8.276;2022-11-20T05:33:34;24.83;;;18.17;;
9948;SDS011;5013;51.840;8.276;2022-11-20T05:36:00;26.20;;;18.70;;
9948;SDS011;5013;51.840;8.276;2022-11-20T05:38:27;23.43;;;18.93;;
9948;SDS011;5013;51.840;8.276;2022-11-20T05:40:53;30.13;;;20.20;;
9948;SDS011;5013;51.840;8.276;2022-11-20T05:43:18;27.33;;;18.47;;
9948;SDS011;5013;51.840;8.276;2022-11-20T05:45:51;28.87;;;19.30;;
9948;SDS011;5013;51.840;8.276;2022-11-20T05:48:18;27.93;;;19.83;;
9948;SDS011;5013;51.840;8.276;2022-11-20T05:50:43;26.30;;;18.07;;
9948;SDS011;5013;51.840;8.276;2022-11-20T05:53:09;25.93;;;18.20;;
9948;SDS011;5013;51.840;8.276;2022-11-20T05:55:35;25.63;;;18.93;;
9948;SDS011;5013;51.840;8.276;2022-11-20T05:58:00;23.57;;;17.70;;
9948;SDS011;5013;51.840;8.276;2022-11-20T06:00:26;28.77;;;17.47;;
9948;SDS011;5013;51.840;8.276;2022-11-20T06:02:51;25.73;;;18.80;;
9948;SDS011;5013;51.840;8.276;2022-11-20T06:05:17;24.83;;;18.53;;
9948;SDS011;5013;51.840;8.276;2022-11-20T06:07:42;23.93;;;18.00;;
9948;SDS011;5013;51.840;8.276;2022-11-20T06:10:08;25.00;;;18.70;;
9948;SDS011;5013;51.840;8.276;2022-11-20T06:12:34;30.57;;;21.30;;
9948;SDS011;5013;51.840;8.276;2022-11-20T06:14:59;27.63;;;19.03;;
9948;SDS011;5013;51.840;8.276;2022-11-20T06:17:25;27.00;;;20.57;;
9948;SDS011;5013;51.840;8.276;2022-11-20T06:19:52;24.47;;;18.20;;
9948;SDS011;5013;51.840;8.276;2022-11-20T06:22:17;25.20;;;18.23;;
9948;SDS011;5013;51.840;8.276;2022-11-20T06:24:43;26.17;;;20.50;;
9948;SDS011;5013;51.840;8.276;2022-11-20T06:27:09;27.53;;;19.60;;
9948;SDS011;5013;51.840;8.276;2022-11-20T06:29:34;26.67;;;19.97;;
9948;SDS011;5013;51.840;8.276;2022-11-20T06:32:00;29.10;;;20.10;;
9948;SDS011;5013;51.840;8.276;2022-11-20T06:34:26;27.57;;;20.10;;
9948;SDS011;5013;51.840;8.276;2022-11-20T06:36:51;26.67;;;19.27;;
9948;SDS011;5013;51.840;8.276;2022-11-20T06:39:17;29.10;;;18.90;;
9948;SDS011;5013;51.840;8.276;2022-11-20T06:41:43;27.30;;;19.97;;
9948;SDS011;5013;51.840;8.276;2022-11-20T06:44:08;28.67;;;20.57;;
9948;SDS011;5013;51.840;8.276;2022-11-20T06:46:34;32.63;;;20.40;;
9948;SDS011;5013;51.840;8.276;2022-11-20T06:48:59;28.73;;;21.47;;
9948;SDS011;5013;51.840;8.276;2022-11-20T06:51:25;27.67;;;21.13;;
9948;SDS011;5013;51.840;8.276;2022-11-20T06:53:50;30.50;;;20.60;;
9948;SDS011;5013;51.840;8.276;2022-11-20T06:56:16;28.87;;;21.47;;
9948;SDS011;5013;51.840;8.276;2022-11-20T06:58:42;28.93;;;21.33;;
9948;SDS011;5013;51.840;8.276;2022-11-20T07:01:09;31.93;;;22.00;;
9948;SDS011;5013;51.840;8.276;2022-11-20T07:03:36;31.83;;;22.67;;
9948;SDS011;5013;51.840;8.276;2022-11-20T07:06:02;31.93;;;21.27;;
9948;SDS011;5013;51.840;8.276;2022-11-20T07:08:28;27.37;;;22.23;;
9948;SDS011;5013;51.840;8.276;2022-11-20T07:11:02;29.20;;;21.83;;
9948;SDS011;5013;51.840;8.276;2022-11-20T07:13:29;31.07;;;23.80;;
9948;SDS011;5013;51.840;8.276;2022-11-20T07:15:59;32.40;;;23.00;;
9948;SDS011;5013;51.840;8.276;2022-11-20T07:18:26;31.30;;;22.90;;
9948;SDS011;5013;51.840;8.276;2022-11-20T07:20:51;34.27;;;21.63;;
9948;SDS011;5013;51.840;8.276;2022-11-20T07:23:17;31.97;;;22.77;;
9948;SDS011;5013;51.840;8.276;2022-11-20T07:25:43;28.43;;;22.00;;
9948;SDS011;5013;51.840;8.276;2022-11-20T07:28:09;26.33;;;20.57;;
9948;SDS011;5013;51.840;8.276;2022-11-20T07:30:35;29.17;;;21.40;;
9948;SDS011;5013;51.840;8.276;2022-11-20T07:33:01;29.97;;;22.37;;
9948;SDS011;5013;51.840;8.276;2022-11-20T07:35:26;29.57;;;23.07;;
9948;SDS011;5013;51.840;8.276;2022-11-20T07:37:52;29.87;;;22.03;;
9948;SDS011;5013;51.840;8.276;2022-11-20T07:40:18;30.07;;;22.50;;
9948;SDS011;5013;51.840;8.276;2022-11-20T07:42:48;36.43;;;22.30;;
9948;SDS011;5013;51.840;8.276;2022-11-20T07:45:15;28.97;;;22.50;;
9948;SDS011;5013;51.840;8.276;2022-11-20T07:47:41;29.63;;;23.20;;
9948;SDS011;5013;51.840;8.276;2022-11-20T07:50:06;31.47;;;23.00;;
9948;SDS011;5013;51.840;8.276;2022-11-20T07:52:32;34.83;;;24.90;;
9948;SDS011;5013;51.840;8.276;2022-11-20T07:54:58;31.97;;;24.10;;
9948;SDS011;5013;51.840;8.276;2022-11-20T07:57:23;32.43;;;23.13;;
9948;SDS011;5013;51.840;8.276;2022-11-20T07:59:49;32.07;;;23.20;;
9948;SDS011;5013;51.840;8.276;2022-11-20T08:02:14;29.20;;;21.80;;
9948;SDS011;5013;51.840;8.276;2022-11-20T08:04:40;31.03;;;21.73;;
9948;SDS011;5013;51.840;8.276;2022-11-20T08:07:06;31.57;;;22.97;;
9948;SDS011;5013;51.840;8.276;2022-11-20T08:09:31;29.93;;;23.13;;
9948;SDS011;5013;51.840;8.276;2022-11-20T08:11:57;28.50;;;21.23;;
9948;SDS011;5013;51.840;8.276;2022-11-20T08:14:41;34.27;;;23.90;;
9948;SDS011;5013;51.840;8.276;2022-11-20T08:17:07;36.87;;;24.93;;
9948;SDS011;5013;51.840;8.276;2022-11-20T08:19:32;34.97;;;23.83;;
9948;SDS011;5013;51.840;8.276;2022-11-20T08:21:58;34.77;;;23.57;;
9948;SDS011;5013;51.840;8.276;2022-11-20T08:24:24;30.87;;;23.37;;
9948;SDS011;5013;51.840;8.276;2022-11-20T08:26:51;36.67;;;23.37;;
9948;SDS011;5013;51.840;8.276;2022-11-20T08:29:17;34.27;;;24.67;;
9948;SDS011;5013;51.840;8.276;2022-11-20T08:31:43;33.63;;;24.73;;
9948;SDS011;5013;51.840;8.276;2022-11-20T08:34:08;32.23;;;24.80;;
9948;SDS011;5013;51.840;8.276;2022-11-20T08:36:34;29.67;;;23.30;;
9948;SDS011;5013;51.840;8.276;2022-11-20T08:39:00;30.67;;;23.10;;
9948;SDS011;5013;51.840;8.276;2022-11-20T08:41:26;34.87;;;24.03;;
9948;SDS011;5013;51.840;8.276;2022-11-20T08:46:39;37.30;;;27.80;;
9948;SDS011;5013;51.840;8.276;2022-11-20T08:49:07;35.87;;;26.90;;
9948;SDS011;5013;51.840;8.276;2022-11-20T08:51:35;37.47;;;28.33;;
9948;SDS011;5013;51.840;8.276;2022-11-20T08:54:01;32.73;;;24.50;;
9948;SDS011;5013;51.840;8.276;2022-11-20T08:56:27;38.97;;;26.77;;
9948;SDS011;5013;51.840;8.276;2022-11-20T08:58:53;39.87;;;26.73;;
9948;SDS011;5013;51.840;8.276;2022-11-20T09:01:19;36.67;;;28.57;;
9948;SDS011;5013;51.840;8.276;2022-11-20T09:03:46;35.97;;;27.77;;
9948;SDS011;5013;51.840;8.276;2022-11-20T09:06:12;36.80;;;27.37;;
9948;SDS011;5013;51.840;8.276;2022-11-20T09:08:38;32.80;;;24.30;;
9948;SDS011;5013;51.840;8.276;2022-11-20T09:11:04;39.33;;;27.37;;
9948;SDS011;5013;51.840;8.276;2022-11-20T09:13:31;35.57;;;27.30;;
9948;SDS011;5013;51.840;8.276;2022-11-20T09:15:59;38.73;;;28.97;;
9948;SDS011;5013;51.840;8.276;2022-11-20T09:18:27;33.13;;;26.23;;
9948;SDS011;5013;51.840;8.276;2022-11-20T09:20:57;32.03;;;25.33;;
9948;SDS011;5013;51.840;8.276;2022-11-20T09:23:23;31.47;;;23.73;;
9948;SDS011;5013;51.840;8.276;2022-11-20T09:25:49;28.87;;;23.40;;
9948;SDS011;5013;51.840;8.276;2022-11-20T09:28:15;31.27;;;25.50;;
9948;SDS011;5013;51.840;8.276;2022-11-20T09:30:41;33.43;;;23.27;;
9948;SDS011;5013;51.840;8.276;2022-11-20T09:33:06;29.97;;;22.90;;
9948;SDS011;5013;51.840;8.276;2022-11-20T09:35:32;29.77;;;23.57;;
9948;SDS011;5013;51.840;8.276;2022-11-20T09:38:03;30.67;;;22.77;;
9948;SDS011;5013;51.840;8.276;2022-11-20T09:40:30;30.03;;;22.93;;
9948;SDS011;5013;51.840;8.276;2022-11-20T09:48:36;23.37;;;19.37;;
9948;SDS011;5013;51.840;8.276;2022-11-20T09:56:29;26.60;;;19.43;;
9948;SDS011;5013;51.840;8.276;2022-11-20T09:58:57;21.37;;;16.80;;
9948;SDS011;5013;51.840;8.276;2022-11-20T10:01:29;20.93;;;16.80;;
9948;SDS011;5013;51.840;8.276;2022-11-20T10:06:29;22.90;;;18.37;;
9948;SDS011;5013;51.840;8.276;2022-11-20T10:17:17;20.20;;;15.90;;
9948;SDS011;5013;51.840;8.276;2022-11-20T10:27:47;23.37;;;18.77;;
9948;SDS011;5013;51.840;8.276;2022-11-20T10:30:26;21.83;;;17.23;;
9948;SDS011;5013;51.840;8.276;2022-11-20T10:32:56;21.27;;;17.50;;
9948;SDS011;5013;51.840;8.276;2022-11-20T10:35:34;22.43;;;18.63;;
9948;SDS011;5013;51.840;8.276;2022-11-20T10:38:25;20.17;;;17.27;;
9948;SDS011;5013;51.840;8.276;2022-11-20T10:41:16;20.77;;;17.03;;
9948;SDS011;5013;51.840;8.276;2022-11-20T10:43:52;21.17;;;16.07;;
9948;SDS011;5013;51.840;8.276;2022-11-20T10:46:23;20.90;;;16.63;;
9948;SDS011;5013;51.840;8.276;2022-11-20T10:48:50;20.83;;;17.70;;
9948;SDS011;5013;51.840;8.276;2022-11-20T11:04:46;24.23;;;17.80;;
9948;SDS011;5013;51.840;8.276;2022-11-20T11:10:05;22.73;;;15.93;;
9948;SDS011;5013;51.840;8.276;2022-11-20T11:12:47;26.17;;;18.40;;
9948;SDS011;5013;51.840;8.276;2022-11-20T11:15:58;19.07;;;15.67;;
9948;SDS011;5013;51.840;8.276;2022-11-20T11:18:03;23.37;;;17.67;;
9948;SDS011;5013;51.840;8.276;2022-11-20T11:20:29;20.83;;;16.80;;
9948;SDS011;5013;51.840;8.276;2022-11-20T11:22:57;21.47;;;17.03;;
9948;SDS011;5013;51.840;8.276;2022-11-20T11:25:28;23.23;;;17.00;;
9948;SDS011;5013;51.840;8.276;2022-11-20T11:27:59;19.50;;;17.10;;
9948;SDS011;5013;51.840;8.276;2022-11-20T11:30:27;21.60;;;16.93;;
9948;SDS011;5013;51.840;8.276;2022-11-20T11:33:05;19.97;;;16.97;;
9948;SDS011;5013;51.840;8.276;2022-11-20T11:35:38;20.50;;;17.23;;
9948;SDS011;5013;51.840;8.276;2022-11-20T11:38:57;17.63;;;15.73;;
9948;SDS011;5013;51.840;8.276;2022-11-20T11:41:00;21.47;;;18.23;;
9948;SDS011;5013;51.840;8.276;2022-11-20T11:43:26;23.03;;;17.30;;
9948;SDS011;5013;51.840;8.276;2022-11-20T11:57:50;28.13;;;19.13;;
9948;SDS011;5013;51.840;8.276;2022-11-20T12:00:17;19.87;;;17.27;;
9948;SDS011;5013;51.840;8.276;2022-11-20T12:07:41;21.23;;;17.60;;
9948;SDS011;5013;51.840;8.276;2022-11-20T12:10:21;23.20;;;19.33;;
9948;SDS011;5013;51.840;8.276;2022-11-20T12:15:50;21.97;;;18.57;;
9948;SDS011;5013;51.840;8.276;2022-11-20T12:18:19;20.93;;;17.77;;
9948;SDS011;5013;51.840;8.276;2022-11-20T12:21:02;20.93;;;17.97;;
9948;SDS011;5013;51.840;8.276;2022-11-20T12:26:15;20.83;;;16.87;;
9948;SDS011;5013;51.840;8.276;2022-11-20T12:34:57;18.80;;;15.80;;
9948;SDS011;5013;51.840;8.276;2022-11-20T12:40:12;19.13;;;16.93;;
9948;SDS011;5013;51.840;8.276;2022-11-20T12:46:16;20.60;;;16.20;;
9948;SDS011;5013;51.840;8.276;2022-11-20T12:48:58;20.47;;;17.97;;
9948;SDS011;5013;51.840;8.276;2022-11-20T12:54:12;25.33;;;17.73;;
9948;SDS011;5013;51.840;8.276;2022-11-20T12:56:43;20.37;;;17.03;;
9948;SDS011;5013;51.840;8.276;2022-11-20T13:02:14;24.57;;;18.33;;
9948;SDS011;5013;51.840;8.276;2022-11-20T13:07:22;22.50;;;18.63;;
9948;SDS011;5013;51.840;8.276;2022-11-20T13:09:51;24.73;;;20.23;;
9948;SDS011;5013;51.840;8.276;2022-11-20T13:17:30;24.30;;;19.17;;
9948;SDS011;5013;51.840;8.276;2022-11-20T13:20:03;25.07;;;18.67;;
9948;SDS011;5013;51.840;8.276;2022-11-20T13:22:44;26.37;;;20.63;;
9948;SDS011;5013;51.840;8.276;2022-11-20T13:25:26;24.00;;;18.73;;
9948;SDS011;5013;51.840;8.276;2022-11-20T13:27:58;26.67;;;21.77;;
9948;SDS011;5013;51.840;8.276;2022-11-20T13:30:29;25.27;;;19.60;;
9948;SDS011;5013;51.840;8.276;2022-11-20T13:33:02;21.27;;;16.97;;
9948;SDS011;5013;51.840;8.276;2022-11-20T13:35:35;23.90;;;18.70;;
9948;SDS011;5013;51.840;8.276;2022-11-20T13:38:19;25.93;;;20.17;;
9948;SDS011;5013;51.840;8.276;2022-11-20T13:40:55;26.33;;;20.07;;
9948;SDS011;5013;51.840;8.276;2022-11-20T13:43:34;25.17;;;19.83;;
9948;SDS011;5013;51.840;8.276;2022-11-20T13:46:03;23.40;;;19.63;;
9948;SDS011;5013;51.840;8.276;2022-11-20T13:48:41;26.60;;;18.93;;
9948;SDS011;5013;51.840;8.276;2022-11-20T13:51:22;27.73;;;19.50;;
9948;SDS011;5013;51.840;8.276;2022-11-20T13:56:52;23.07;;;18.63;;
9948;SDS011;5013;51.840;8.276;2022-11-20T14:02:13;23.67;;;17.57;;
9948;SDS011;5013;51.840;8.276;2022-11-20T14:04:52;26.57;;;18.80;;
9948;SDS011;5013;51.840;8.276;2022-11-20T14:07:22;22.80;;;18.07;;
9948;SDS011;5013;51.840;8.276;2022-11-20T14:09:55;25.73;;;18.50;;
9948;SDS011;5013;51.840;8.276;2022-11-20T14:12:23;24.07;;;17.53;;
9948;SDS011;5013;51.840;8.276;2022-11-20T14:14:56;27.17;;;18.73;;
9948;SDS011;5013;51.840;8.276;2022-11-20T14:17:23;25.80;;;19.17;;
9948;SDS011;5013;51.840;8.276;2022-11-20T14:20:01;25.37;;;19.57;;
9948;SDS011;5013;51.840;8.276;2022-11-20T14:22:29;27.37;;;19.57;;
9948;SDS011;5013;51.840;8.276;2022-11-20T14:25:03;36.50;;;26.47;;
9948;SDS011;5013;51.840;8.276;2022-11-20T14:27:53;50.53;;;36.37;;
9948;SDS011;5013;51.840;8.276;2022-11-20T14:30:25;30.13;;;21.50;;
9948;SDS011;5013;51.840;8.276;2022-11-20T14:33:03;36.57;;;26.03;;
9948;SDS011;5013;51.840;8.276;2022-11-20T14:35:30;33.70;;;23.20;;
9948;SDS011;5013;51.840;8.276;2022-11-20T14:38:01;28.80;;;20.27;;
9948;SDS011;5013;51.840;8.276;2022-11-20T14:40:29;26.73;;;20.90;;
9948;SDS011;5013;51.840;8.276;2022-11-20T14:42:55;28.50;;;20.47;;
9948;SDS011;5013;51.840;8.276;2022-11-20T14:45:22;28.63;;;21.53;;
9948;SDS011;5013;51.840;8.276;2022-11-20T14:47:48;23.97;;;19.40;;
9948;SDS011;5013;51.840;8.276;2022-11-20T14:50:21;23.10;;;17.30;;
9948;SDS011;5013;51.840;8.276;2022-11-20T14:52:49;24.30;;;19.10;;
9948;SDS011;5013;51.840;8.276;2022-11-20T14:55:33;27.23;;;19.57;;
9948;SDS011;5013;51.840;8.276;2022-11-20T14:58:02;26.73;;;19.63;;
9948;SDS011;5013;51.840;8.276;2022-11-20T15:00:31;25.93;;;19.87;;
9948;SDS011;5013;51.840;8.276;2022-11-20T15:02:59;31.33;;;22.37;;
9948;SDS011;5013;51.840;8.276;2022-11-20T15:08:13;29.43;;;20.70;;
9948;SDS011;5013;51.840;8.276;2022-11-20T15:10:44;29.63;;;22.17;;
9948;SDS011;5013;51.840;8.276;2022-11-20T15:13:12;32.27;;;22.57;;
9948;SDS011;5013;51.840;8.276;2022-11-20T15:15:52;28.87;;;21.20;;
9948;SDS011;5013;51.840;8.276;2022-11-20T15:18:25;27.77;;;21.77;;
9948;SDS011;5013;51.840;8.276;2022-11-20T15:20:57;28.07;;;20.13;;
9948;SDS011;5013;51.840;8.276;2022-11-20T15:23:27;28.13;;;20.83;;
9948;SDS011;5013;51.840;8.276;2022-11-20T15:25:53;31.80;;;21.70;;
9948;SDS011;5013;51.840;8.276;2022-11-20T15:28:27;30.27;;;22.53;;
9948;SDS011;5013;51.840;8.276;2022-11-20T15:31:02;31.83;;;22.63;;
9948;SDS011;5013;51.840;8.276;2022-11-20T15:33:29;28.87;;;22.27;;
9948;SDS011;5013;51.840;8.276;2022-11-20T15:35:55;31.63;;;23.07;;
9948;SDS011;5013;51.840;8.276;2022-11-20T15:38:21;29.03;;;22.30;;
9948;SDS011;5013;51.840;8.276;2022-11-20T15:40:46;29.27;;;21.53;;
9948;SDS011;5013;51.840;8.276;2022-11-20T15:43:12;33.07;;;22.10;;
9948;SDS011;5013;51.840;8.276;2022-11-20T15:45:41;30.47;;;22.73;;
9948;SDS011;5013;51.840;8.276;2022-11-20T15:48:12;31.63;;;21.70;;
9948;SDS011;5013;51.840;8.276;2022-11-20T15:50:43;31.43;;;23.33;;
9948;SDS011;5013;51.840;8.276;2022-11-20T15:53:15;31.23;;;22.67;;
9948;SDS011;5013;51.840;8.276;2022-11-20T15:55:41;34.37;;;23.73;;
9948;SDS011;5013;51.840;8.276;2022-11-20T15:58:06;29.07;;;22.43;;
9948;SDS011;5013;51.840;8.276;2022-11-20T16:00:32;31.17;;;23.57;;
9948;SDS011;5013;51.840;8.276;2022-11-20T16:02:58;29.43;;;22.50;;
9948;SDS011;5013;51.840;8.276;2022-11-20T16:05:23;31.23;;;23.00;;
9948;SDS011;5013;51.840;8.276;2022-11-20T16:07:52;27.20;;;21.27;;
9948;SDS011;5013;51.840;8.276;2022-11-20T16:10:19;27.37;;;21.60;;
9948;SDS011;5013;51.840;8.276;2022-11-20T16:12:45;30.60;;;21.70;;
9948;SDS011;5013;51.840;8.276;2022-11-20T16:15:29;26.20;;;20.97;;
9948;SDS011;5013;51.840;8.276;2022-11-20T16:18:11;27.03;;;21.50;;
9948;SDS011;5013;51.840;8.276;2022-11-20T16:20:38;26.43;;;20.10;;
9948;SDS011;5013;51.840;8.276;2022-11-20T16:23:04;26.37;;;20.00;;
9948;SDS011;5013;51.840;8.276;2022-11-20T16:25:31;28.97;;;21.37;;
9948;SDS011;5013;51.840;8.276;2022-11-20T16:27:56;28.90;;;20.00;;
9948;SDS011;5013;51.840;8.276;2022-11-20T16:30:22;24.27;;;19.30;;
9948;SDS011;5013;51.840;8.276;2022-11-20T16:32:48;25.63;;;17.73;;
9948;SDS011;5013;51.840;8.276;2022-11-20T16:35:13;24.87;;;19.13;;
9948;SDS011;5013;51.840;8.276;2022-11-20T16:37:39;22.13;;;17.53;;
9948;SDS011;5013;51.840;8.276;2022-11-20T16:40:05;28.60;;;18.83;;
9948;SDS011;5013;51.840;8.276;2022-11-20T16:42:33;28.13;;;19.30;;
9948;SDS011;5013;51.840;8.276;2022-11-20T16:44:59;28.60;;;20.00;;
9948;SDS011;5013;51.840;8.276;2022-11-20T16:47:25;26.43;;;20.23;;
9948;SDS011;5013;51.840;8.276;2022-11-20T16:49:50;24.37;;;19.27;;
9948;SDS011;5013;51.840;8.276;2022-11-20T16:52:16;25.20;;;19.83;;